Time;durP1;ratioP1;P1;durP2;ratioP2;P2;SDS_P1;SDS_P2;PMS_P1;PMS_P2;Temp;Humidity;BMP_temperature;BMP_pressure;BME280_temperature;BME280_humidity;BME280_pressure;Samples;Min_cycle;Max_cycle;Signal;HPM_P1;HPM_P2
2024/03/03 00:01:38;;;;;;;10.13;7.50;;;11.40;99.90;;;;;;5045059;28;20044;-78
2024/03/03 00:04:04;;;;;;;8.95;7.45;;;11.40;99.90;;;;;;5046780;28;20085;-77
2024/03/03 00:06:29;;;;;;;9.65;7.32;;;11.40;99.90;;;;;;5040638;28;20033;-77
2024/03/03 00:08:58;;;;;;;10.25;7.28;;;11.40;99.90;;;;;;5033806;28;20099;-77
2024/03/03 00:11:24;;;;;;;8.98;7.50;;;11.40;99.90;;;;;;5034104;28;20117;-77
2024/03/03 00:13:49;;;;;;;12.05;7.47;;;11.40;99.90;;;;;;5034065;28;20112;-78
2024/03/03 00:16:15;;;;;;;11.60;7.05;;;11.40;99.90;;;;;;5034032;28;20034;-77
2024/03/03 00:18:41;;;;;;;10.80;6.95;;;11.40;99.90;;;;;;5033766;28;20042;-77
2024/03/03 00:21:14;;;;;;;9.10;6.57;;;11.40;99.90;;;;;;5034001;28;20029;-76
2024/03/03 00:23:40;;;;;;;;;;;11.40;99.90;;;;;;5034278;28;20079;-77
2024/03/03 00:26:05;;;;;;;15.68;7.10;;;11.40;99.90;;;;;;5033688;28;19991;-77
2024/03/03 00:28:31;;;;;;;14.10;8.20;;;11.40;99.90;;;;;;5033789;28;20045;-77
2024/03/03 00:30:57;;;;;;;9.25;7.20;;;11.40;99.90;;;;;;5032538;28;20121;-77
2024/03/03 00:33:23;;;;;;;11.77;7.53;;;11.30;99.90;;;;;;5033741;28;20034;-78
2024/03/03 00:35:48;;;;;;;10.25;8.20;;;11.30;99.90;;;;;;5033648;28;20038;-77
2024/03/03 00:38:14;;;;;;;11.23;8.35;;;11.30;99.90;;;;;;5033442;28;20033;-77
2024/03/03 00:40:40;;;;;;;11.80;9.23;;;11.30;99.90;;;;;;5033351;28;20120;-77
2024/03/03 00:43:05;;;;;;;15.75;9.73;;;11.30;99.90;;;;;;5033181;28;20040;-77
2024/03/03 00:45:32;;;;;;;11.93;8.82;;;11.40;99.90;;;;;;5033617;28;20037;-77
2024/03/03 00:47:58;;;;;;;10.50;9.18;;;11.40;99.90;;;;;;5033029;28;20041;-77
2024/03/03 00:50:24;;;;;;;13.68;9.85;;;11.40;99.90;;;;;;5033399;28;20033;-77
2024/03/03 00:52:56;;;;;;;12.57;8.80;;;11.40;99.90;;;;;;5030757;28;20030;-77
2024/03/03 00:55:22;;;;;;;16.83;9.85;;;11.40;99.90;;;;;;5030783;28;20572;-77
2024/03/03 00:57:48;;;;;;;14.38;9.50;;;11.40;99.90;;;;;;5032109;28;20037;-77
2024/03/03 01:00:14;;;;;;;11.40;8.63;;;11.40;99.90;;;;;;5033512;28;20038;-77
2024/03/03 01:02:40;;;;;;;11.25;8.85;;;11.40;99.90;;;;;;5033228;28;20033;-77
2024/03/03 01:05:08;;;;;;;12.80;8.63;;;11.40;99.90;;;;;;5033160;28;20034;-78
2024/03/03 01:07:33;;;;;;;12.65;8.93;;;11.40;99.90;;;;;;5032959;28;20371;-77
2024/03/03 01:09:59;;;;;;;15.48;8.23;;;11.40;99.90;;;;;;5032899;28;20056;-77
2024/03/03 01:12:25;;;;;;;13.70;8.63;;;11.40;99.90;;;;;;5032844;28;20077;-76
2024/03/03 01:14:51;;;;;;;14.52;8.70;;;11.40;99.90;;;;;;5033273;28;20037;-77
2024/03/03 01:17:17;;;;;;;11.98;8.40;;;11.40;99.90;;;;;;5033059;28;20363;-77
2024/03/03 01:19:42;;;;;;;9.95;7.65;;;11.40;99.90;;;;;;5032921;28;20025;-77
2024/03/03 01:22:08;;;;;;;13.60;9.05;;;11.50;99.90;;;;;;5032868;28;20075;-77
2024/03/03 01:24:34;;;;;;;9.80;8.18;;;11.40;99.90;;;;;;5032669;28;20033;-76
2024/03/03 01:27:00;;;;;;;12.77;8.85;;;11.40;99.90;;;;;;5032986;28;20456;-78
2024/03/03 01:29:27;;;;;;;11.32;8.40;;;11.40;99.90;;;;;;5033028;28;20076;-76
2024/03/03 01:31:53;;;;;;;12.82;8.60;;;11.40;99.90;;;;;;5032546;28;20034;-77
2024/03/03 01:34:19;;;;;;;11.95;9.07;;;11.40;99.90;;;;;;5032537;28;20045;-78
2024/03/03 01:36:44;;;;;;;14.30;8.82;;;11.40;99.90;;;;;;5032784;28;20059;-78
2024/03/03 01:39:10;;;;;;;12.60;8.15;;;11.40;99.90;;;;;;5032574;28;20512;-78
2024/03/03 01:41:36;;;;;;;11.65;8.75;;;11.40;99.90;;;;;;5032430;28;20034;-77
2024/03/03 01:44:02;;;;;;;10.40;8.20;;;11.40;99.90;;;;;;5032475;28;20462;-77
2024/03/03 01:46:29;;;;;;;12.70;8.57;;;11.40;99.90;;;;;;5032626;28;20132;-78
2024/03/03 01:48:55;;;;;;;14.18;8.05;;;11.40;99.90;;;;;;5032332;28;20508;-78
2024/03/03 01:51:22;;;;;;;9.43;7.50;;;11.40;99.90;;;;;;5032436;28;20030;-78
2024/03/03 01:53:50;;;;;;;7.80;6.97;;;11.40;99.90;;;;;;5032326;28;20037;-77
2024/03/03 01:56:23;;;;;;;13.63;7.32;;;11.40;99.90;;;;;;5032730;28;20076;-78
2024/03/03 01:58:49;;;;;;;10.18;6.75;;;11.40;99.90;;;;;;5030732;28;20063;-76
2024/03/03 02:01:15;;;;;;;9.65;7.40;;;11.40;99.90;;;;;;5029852;28;20037;-78
2024/03/03 02:03:42;;;;;;;11.60;6.70;;;11.40;99.90;;;;;;5029631;28;20053;-77
2024/03/03 02:06:09;;;;;;;8.07;6.78;;;11.40;99.90;;;;;;5031910;28;20040;-78
2024/03/03 02:08:35;;;;;;;11.43;6.68;;;11.40;99.90;;;;;;5032332;28;20433;-76
2024/03/03 02:11:01;;;;;;;11.02;6.72;;;11.40;99.90;;;;;;5032244;28;20026;-77
2024/03/03 02:13:27;;;;;;;10.75;6.25;;;11.40;99.90;;;;;;5036092;28;20046;-78
2024/03/03 02:15:53;;;;;;;9.60;5.95;;;11.40;99.90;;;;;;5036214;28;20041;-78
2024/03/03 02:18:18;;;;;;;13.80;6.55;;;11.40;99.90;;;;;;5036599;28;20030;-76
2024/03/03 02:20:45;;;;;;;10.05;6.22;;;11.50;99.90;;;;;;5036193;28;20068;-78
2024/03/03 02:23:11;;;;;;;8.10;5.88;;;11.40;99.90;;;;;;5036103;28;20504;-78
2024/03/03 02:25:39;;;;;;;7.40;5.80;;;11.50;99.90;;;;;;5036245;28;20069;-78
2024/03/03 02:28:06;;;;;;;8.25;5.70;;;11.40;99.90;;;;;;5035745;28;20038;-77
2024/03/03 02:30:31;;;;;;;11.27;6.55;;;11.40;99.90;;;;;;5035919;28;20083;-78
2024/03/03 02:32:57;;;;;;;10.07;6.35;;;11.40;99.90;;;;;;5035915;28;20030;-78
2024/03/03 02:35:23;;;;;;;12.15;7.25;;;11.50;99.90;;;;;;5035462;28;20034;-75
2024/03/03 02:37:49;;;;;;;14.70;7.75;;;11.40;99.90;;;;;;5035961;28;20057;-77
2024/03/03 02:40:14;;;;;;;16.30;8.75;;;11.40;99.90;;;;;;5035671;28;20044;-77
2024/03/03 02:42:40;;;;;;;8.95;6.97;;;11.50;99.90;;;;;;5035837;28;20040;-77
2024/03/03 02:45:06;;;;;;;9.63;6.93;;;11.50;99.90;;;;;;5035765;28;20057;-77
2024/03/03 02:47:32;;;;;;;14.30;7.47;;;11.40;99.90;;;;;;5035832;28;20072;-78
2024/03/03 02:49:58;;;;;;;8.05;6.75;;;11.40;99.90;;;;;;5035529;28;20046;-77
2024/03/03 02:52:24;;;;;;;10.20;6.70;;;11.50;99.90;;;;;;5035683;28;20033;-78
2024/03/03 02:54:50;;;;;;;9.38;6.68;;;11.50;99.90;;;;;;5035505;28;20490;-77
2024/03/03 02:57:15;;;;;;;9.15;5.88;;;11.50;99.90;;;;;;5035873;28;20034;-77
2024/03/03 02:59:41;;;;;;;8.70;6.30;;;11.40;99.90;;;;;;5035626;28;20115;-76
2024/03/03 03:02:07;;;;;;;7.43;6.38;;;11.40;99.90;;;;;;5035718;28;20030;-77
2024/03/03 03:04:33;;;;;;;8.98;5.47;;;11.40;99.90;;;;;;5035511;28;20037;-77
2024/03/03 03:06:59;;;;;;;7.65;5.50;;;11.40;99.90;;;;;;5035281;28;20068;-78
2024/03/03 03:09:25;;;;;;;8.32;6.32;;;11.40;99.90;;;;;;5035221;28;20073;-78
2024/03/03 03:11:50;;;;;;;8.77;5.70;;;11.40;99.90;;;;;;5035112;28;20525;-77
2024/03/03 03:14:16;;;;;;;6.60;5.40;;;11.40;99.90;;;;;;5035320;28;20108;-78
2024/03/03 03:16:42;;;;;;;7.15;5.50;;;11.40;99.90;;;;;;5035450;28;20060;-76
2024/03/03 03:19:08;;;;;;;7.45;5.55;;;11.40;99.90;;;;;;5035187;28;20155;-76
2024/03/03 03:21:34;;;;;;;11.63;6.88;;;11.40;99.90;;;;;;5034760;28;20041;-78
2024/03/03 03:24:00;;;;;;;8.00;6.68;;;11.40;99.90;;;;;;5034145;28;20390;-78
2024/03/03 03:26:26;;;;;;;8.38;7.03;;;11.30;99.90;;;;;;5035298;28;20036;-78
2024/03/03 03:28:51;;;;;;;8.68;7.00;;;11.40;99.90;;;;;;5035146;28;20042;-77
2024/03/03 03:31:17;;;;;;;9.30;6.90;;;11.30;99.90;;;;;;5035191;28;20120;-77
2024/03/03 03:33:43;;;;;;;9.27;7.05;;;11.30;99.90;;;;;;5034717;28;20044;-75
2024/03/03 03:36:10;;;;;;;8.88;7.15;;;11.30;99.90;;;;;;5034746;28;20041;-77
2024/03/03 03:38:36;;;;;;;10.05;6.97;;;11.30;99.90;;;;;;5034821;28;20041;-77
2024/03/03 03:41:03;;;;;;;11.40;7.57;;;11.30;99.90;;;;;;5034492;28;20045;-76
2024/03/03 03:43:30;;;;;;;10.43;7.80;;;11.30;99.90;;;;;;5034823;28;20402;-77
2024/03/03 03:45:56;;;;;;;8.32;7.03;;;11.30;99.90;;;;;;5034773;28;20497;-77
2024/03/03 03:48:23;;;;;;;10.35;7.00;;;11.30;99.90;;;;;;5034605;28;20054;-77
2024/03/03 03:50:49;;;;;;;9.30;7.70;;;11.20;99.90;;;;;;5034779;28;20473;-77
2024/03/03 03:53:15;;;;;;;9.45;7.95;;;11.30;99.90;;;;;;5034474;28;20080;-77
2024/03/03 03:55:40;;;;;;;9.23;8.25;;;11.20;99.90;;;;;;5034386;28;20029;-76
2024/03/03 03:58:06;;;;;;;10.05;7.03;;;11.20;99.90;;;;;;5034485;28;20064;-77
2024/03/03 04:00:32;;;;;;;9.55;8.02;;;11.20;99.90;;;;;;5034552;28;20038;-76
2024/03/03 04:02:58;;;;;;;13.48;7.32;;;11.20;99.90;;;;;;5038541;28;20033;-77
2024/03/03 04:05:24;;;;;;;10.23;7.43;;;11.20;99.90;;;;;;5037413;28;20056;-76
2024/03/03 04:07:50;;;;;;;10.70;7.35;;;11.20;99.90;;;;;;5034683;28;20033;-77
2024/03/03 04:10:18;;;;;;;8.65;7.13;;;11.20;99.90;;;;;;5034317;28;20045;-76
2024/03/03 04:12:46;;;;;;;11.88;7.57;;;11.20;99.90;;;;;;5034353;28;20040;-77
2024/03/03 04:15:13;;;;;;;8.48;6.65;;;11.20;99.90;;;;;;5033984;28;20041;-75
2024/03/03 04:17:39;;;;;;;11.98;8.05;;;11.20;99.90;;;;;;5034593;28;20044;-75
2024/03/03 04:20:06;;;;;;;11.38;10.05;;;11.20;99.90;;;;;;5034404;28;20037;-76
2024/03/03 04:22:33;;;;;;;9.57;8.07;;;11.20;99.90;;;;;;5036116;28;20500;-74
2024/03/03 04:24:58;;;;;;;9.75;7.10;;;11.20;99.90;;;;;;5035219;28;20137;-76
2024/03/03 04:27:24;;;;;;;9.00;7.32;;;11.30;99.90;;;;;;5034294;28;20112;-76
2024/03/03 04:29:50;;;;;;;9.95;7.32;;;11.20;99.90;;;;;;5034297;28;20044;-77
2024/03/03 04:32:16;;;;;;;10.05;8.00;;;11.30;99.90;;;;;;5033995;28;20112;-77
2024/03/03 04:34:42;;;;;;;16.15;8.40;;;11.30;99.90;;;;;;5033831;28;20041;-77
2024/03/03 04:37:08;;;;;;;8.90;6.78;;;11.20;99.90;;;;;;5033766;28;20056;-77
2024/03/03 04:39:37;;;;;;;12.05;6.60;;;11.30;99.90;;;;;;5034089;28;20034;-76
2024/03/03 04:42:03;;;;;;;10.27;6.80;;;11.30;99.90;;;;;;5033992;28;20087;-75
2024/03/03 04:44:30;;;;;;;11.07;6.93;;;11.20;99.90;;;;;;5034196;28;20033;-78
2024/03/03 04:46:56;;;;;;;10.95;7.38;;;11.20;99.90;;;;;;5033745;28;20575;-77
2024/03/03 04:49:23;;;;;;;10.57;7.22;;;11.20;99.90;;;;;;5034958;28;20128;-75
2024/03/03 04:51:49;;;;;;;9.23;6.72;;;11.20;99.90;;;;;;5048768;28;20059;-77
2024/03/03 04:54:14;;;;;;;13.15;6.97;;;11.30;99.90;;;;;;5034342;28;20033;-73
2024/03/03 04:56:41;;;;;;;9.85;6.00;;;11.20;99.90;;;;;;5044046;28;20091;-75
2024/03/03 04:59:06;;;;;;;11.48;6.60;;;11.20;99.90;;;;;;5046634;28;20036;-77
2024/03/03 05:01:33;;;;;;;12.43;6.63;;;11.20;99.90;;;;;;5040726;28;20072;-78
2024/03/03 05:03:59;;;;;;;8.85;6.22;;;11.20;99.90;;;;;;5033166;28;20116;-78
2024/03/03 05:06:25;;;;;;;10.05;6.43;;;11.20;99.90;;;;;;5033117;28;20065;-77
2024/03/03 05:08:50;;;;;;;9.10;6.07;;;11.20;99.90;;;;;;5033217;28;20077;-78
2024/03/03 05:11:16;;;;;;;10.85;7.00;;;11.20;99.90;;;;;;5033368;28;20034;-76
2024/03/03 05:13:42;;;;;;;7.68;6.57;;;11.20;99.90;;;;;;5033031;28;20120;-71
2024/03/03 05:16:08;;;;;;;9.05;7.10;;;11.10;99.90;;;;;;5032453;28;20124;-77
2024/03/03 05:18:34;;;;;;;10.18;7.38;;;11.20;99.90;;;;;;5031917;28;20484;-77
2024/03/03 05:21:00;;;;;;;10.60;7.13;;;11.20;99.90;;;;;;5032205;28;20087;-77
2024/03/03 05:23:26;;;;;;;11.55;8.13;;;11.20;99.90;;;;;;5031923;28;20038;-76
2024/03/03 05:25:52;;;;;;;9.65;6.68;;;11.20;99.90;;;;;;5032248;28;20037;-78
2024/03/03 05:28:19;;;;;;;13.10;7.97;;;11.20;99.90;;;;;;5032899;28;20088;-77
2024/03/03 05:30:45;;;;;;;8.18;6.75;;;11.20;99.90;;;;;;5032697;28;20518;-77
2024/03/03 05:33:11;;;;;;;11.68;7.40;;;11.20;99.90;;;;;;5033136;28;20030;-77
2024/03/03 05:35:38;;;;;;;11.27;6.85;;;11.20;99.90;;;;;;5032891;28;20076;-78
2024/03/03 05:38:04;;;;;;;11.68;7.65;;;11.20;99.90;;;;;;5033050;28;20045;-77
2024/03/03 05:40:30;;;;;;;17.13;7.25;;;11.20;99.90;;;;;;5032675;28;20033;-77
2024/03/03 05:42:56;;;;;;;10.65;8.30;;;11.20;99.90;;;;;;5032697;28;20033;-77
2024/03/03 05:45:21;;;;;;;11.60;7.80;;;11.20;99.90;;;;;;5032599;28;20382;-78
2024/03/03 05:47:47;;;;;;;9.95;8.07;;;11.20;99.90;;;;;;5032008;28;20123;-77
2024/03/03 05:50:13;;;;;;;9.95;8.30;;;11.20;99.90;;;;;;5031364;28;20045;-76
2024/03/03 05:52:39;;;;;;;11.73;7.93;;;11.20;99.90;;;;;;5032603;28;20048;-77
2024/03/03 05:55:05;;;;;;;10.93;7.53;;;11.20;99.90;;;;;;5032262;28;20040;-77
2024/03/03 05:57:31;;;;;;;12.32;8.18;;;11.20;99.90;;;;;;5032588;28;20500;-77
2024/03/03 05:59:57;;;;;;;13.15;8.55;;;11.20;99.90;;;;;;5032472;28;20038;-77
2024/03/03 06:02:23;;;;;;;11.75;7.97;;;11.20;99.90;;;;;;5032542;28;20030;-77
2024/03/03 06:04:48;;;;;;;11.07;7.35;;;11.10;99.90;;;;;;5032487;28;20132;-77
2024/03/03 06:07:15;;;;;;;9.00;7.50;;;11.20;99.90;;;;;;5032315;28;20444;-77
2024/03/03 06:09:41;;;;;;;13.00;8.25;;;11.10;99.90;;;;;;5032503;28;20046;-77
2024/03/03 06:12:07;;;;;;;10.35;7.05;;;11.20;99.90;;;;;;5032630;28;20037;-77
2024/03/03 06:14:34;;;;;;;13.20;6.90;;;11.20;99.90;;;;;;5032331;28;20393;-77
2024/03/03 06:17:00;;;;;;;10.85;7.43;;;11.10;99.90;;;;;;5032409;28;20033;-77
2024/03/03 06:19:26;;;;;;;13.32;7.32;;;11.10;99.90;;;;;;5031716;28;20473;-77
2024/03/03 06:21:52;;;;;;;11.07;6.53;;;11.20;99.90;;;;;;5032523;28;20401;-78
2024/03/03 06:24:19;;;;;;;12.23;7.25;;;11.10;99.90;;;;;;5032131;28;20045;-76
2024/03/03 06:26:45;;;;;;;12.13;6.97;;;11.20;99.90;;;;;;5032423;28;20600;-77
2024/03/03 06:29:11;;;;;;;8.00;6.10;;;11.20;99.90;;;;;;5032013;28;20564;-77
2024/03/03 06:31:44;;;;;;;10.98;6.55;;;11.20;99.90;;;;;;5032590;28;20037;-76
2024/03/03 06:34:10;;;;;;;12.55;6.45;;;11.20;99.90;;;;;;5032436;28;20037;-77
2024/03/03 06:36:36;;;;;;;11.07;6.85;;;11.20;99.90;;;;;;5032647;28;20033;-77
2024/03/03 06:39:03;;;;;;;10.02;6.95;;;11.20;99.90;;;;;;5032291;28;20064;-77
2024/03/03 06:41:30;;;;;;;9.85;6.15;;;11.30;99.90;;;;;;5032320;28;20033;-78
2024/03/03 06:43:56;;;;;;;14.48;7.82;;;11.30;99.90;;;;;;5030984;28;20037;-77
2024/03/03 06:46:22;;;;;;;11.88;6.60;;;11.30;99.90;;;;;;5032275;28;20068;-76
2024/03/03 06:48:48;;;;;;;9.70;6.18;;;11.40;99.90;;;;;;5032070;28;20049;-77
2024/03/03 06:51:14;;;;;;;11.80;7.07;;;11.40;99.90;;;;;;5032126;28;20060;-77
2024/03/03 06:53:40;;;;;;;8.88;6.25;;;11.40;99.90;;;;;;5032024;28;20033;-77
2024/03/03 06:56:16;;;;;;;9.27;6.05;;;11.40;99.90;;;;;;5031732;28;20071;-76
2024/03/03 06:58:44;;;;;;;9.27;6.03;;;11.50;99.90;;;;;;5034592;28;20037;-77
2024/03/03 07:01:11;;;;;;;11.02;5.75;;;11.50;99.90;;;;;;5033855;28;20068;-77
2024/03/03 07:06:21;;;;;;;12.88;5.70;;;11.60;99.90;;;;;;5037719;28;20040;-77
2024/03/03 07:08:47;;;;;;;9.52;5.35;;;11.60;99.90;;;;;;5035200;28;20049;-77
2024/03/03 07:11:13;;;;;;;8.05;5.65;;;11.60;99.90;;;;;;5033607;28;20118;-75
2024/03/03 07:13:38;;;;;;;7.68;5.38;;;11.60;99.90;;;;;;5035282;28;20033;-77
2024/03/03 07:16:05;;;;;;;10.13;5.82;;;11.60;99.90;;;;;;5035103;28;20037;-77
2024/03/03 07:18:30;;;;;;;8.20;5.80;;;11.70;99.90;;;;;;5034898;28;20054;-79
2024/03/03 07:20:56;;;;;;;9.90;6.60;;;11.70;99.90;;;;;;5034419;28;20041;-82
2024/03/03 07:23:22;;;;;;;7.03;5.28;;;11.70;99.90;;;;;;5033513;28;20037;-80
2024/03/03 07:25:48;;;;;;;11.43;5.78;;;11.70;99.90;;;;;;5034548;28;20092;-77
2024/03/03 07:28:13;;;;;;;10.23;5.82;;;11.80;99.90;;;;;;5034738;28;20064;-74
2024/03/03 07:30:39;;;;;;;10.50;5.30;;;11.80;99.90;;;;;;5035078;28;20033;-76
2024/03/03 07:33:05;;;;;;;10.27;5.70;;;11.80;99.90;;;;;;5034578;28;20045;-77
2024/03/03 07:35:30;;;;;;;6.78;5.90;;;11.80;99.90;;;;;;5034599;28;20045;-76
2024/03/03 07:37:56;;;;;;;8.70;6.15;;;11.90;99.90;;;;;;5034901;28;20057;-76
2024/03/03 07:40:22;;;;;;;15.25;7.30;;;11.90;99.90;;;;;;5034145;28;20029;-78
2024/03/03 07:42:48;;;;;;;9.15;6.72;;;11.90;99.90;;;;;;5034164;28;20044;-78
2024/03/03 07:45:13;;;;;;;13.77;6.32;;;11.90;99.90;;;;;;5034849;28;20136;-76
2024/03/03 07:47:39;;;;;;;13.70;7.05;;;11.90;99.90;;;;;;5032199;28;20069;-78
2024/03/03 07:50:06;;;;;;;14.88;6.95;;;12.00;99.90;;;;;;5032121;28;20057;-77
2024/03/03 07:52:31;;;;;;;9.05;6.25;;;12.00;99.90;;;;;;5032599;28;20423;-76
2024/03/03 07:54:57;;;;;;;9.23;5.93;;;12.00;99.90;;;;;;5034488;28;20117;-77
2024/03/03 07:57:23;;;;;;;16.75;5.57;;;12.00;99.90;;;;;;5034511;28;20065;-76
2024/03/03 07:59:49;;;;;;;10.15;5.78;;;12.00;99.90;;;;;;5034441;28;20033;-76
2024/03/03 08:02:14;;;;;;;10.27;6.10;;;12.00;99.90;;;;;;5034044;28;20040;-75
2024/03/03 08:04:40;;;;;;;14.18;5.68;;;12.00;99.90;;;;;;5034453;28;20477;-76
2024/03/03 08:07:06;;;;;;;9.05;5.97;;;12.10;99.90;;;;;;5034670;28;20033;-75
2024/03/03 08:09:32;;;;;;;9.18;4.45;;;12.10;99.90;;;;;;5032818;28;20045;-76
2024/03/03 08:11:57;;;;;;;11.45;5.22;;;12.10;99.90;;;;;;5034061;28;20116;-76
2024/03/03 08:14:23;;;;;;;9.88;4.63;;;12.10;99.90;;;;;;5033408;28;20037;-77
2024/03/03 08:16:49;;;;;;;8.70;4.00;;;12.10;99.90;;;;;;5033538;28;20494;-76
2024/03/03 08:19:15;;;;;;;6.35;2.58;;;12.10;99.90;;;;;;5033518;28;20034;-81
2024/03/03 08:21:40;;;;;;;8.13;3.22;;;12.10;99.90;;;;;;5033822;28;20045;-76
2024/03/03 08:24:06;;;;;;;5.32;3.25;;;12.20;99.90;;;;;;5033859;28;20034;-79
2024/03/03 08:26:33;;;;;;;11.80;3.78;;;12.20;99.90;;;;;;5033736;28;20041;-76
2024/03/03 08:28:59;;;;;;;6.00;3.70;;;12.20;99.90;;;;;;5033977;28;20049;-78
2024/03/03 08:31:25;;;;;;;10.30;3.28;;;12.20;99.90;;;;;;5033768;28;20537;-76
2024/03/03 08:33:51;;;;;;;7.90;2.92;;;12.20;99.90;;;;;;5033699;28;20120;-77
2024/03/03 08:36:17;;;;;;;8.82;3.50;;;12.20;99.90;;;;;;5033468;28;20038;-78
2024/03/03 08:38:43;;;;;;;8.90;3.38;;;12.20;99.90;;;;;;5033593;28;20061;-77
2024/03/03 08:41:08;;;;;;;7.47;2.95;;;12.30;99.90;;;;;;5033763;28;20473;-78
2024/03/03 08:43:34;;;;;;;8.85;2.83;;;12.30;99.90;;;;;;5033166;28;20039;-76
2024/03/03 08:46:00;;;;;;;7.35;2.67;;;12.30;99.90;;;;;;5030718;28;20065;-77
2024/03/03 08:48:26;;;;;;;9.82;2.95;;;12.30;99.90;;;;;;5030511;28;20398;-76
2024/03/03 08:50:52;;;;;;;8.88;2.20;;;12.30;99.90;;;;;;5032988;28;20038;-77
2024/03/03 08:53:18;;;;;;;8.55;2.08;;;12.30;99.90;;;;;;5033366;28;20370;-77
2024/03/03 08:55:45;;;;;;;11.85;2.00;;;12.30;99.90;;;;;;5031180;28;20037;-70
2024/03/03 08:58:11;;;;;;;8.73;2.70;;;12.40;99.90;;;;;;5032996;28;20034;-72
2024/03/03 09:00:37;;;;;;;11.13;2.33;;;12.40;99.90;;;;;;5035488;28;20108;-77
2024/03/03 09:03:03;;;;;;;8.73;1.92;;;12.40;99.90;;;;;;5033691;28;20041;-77
2024/03/03 09:05:28;;;;;;;15.90;2.50;;;12.40;99.90;;;;;;5032910;28;20068;-77
2024/03/03 09:07:54;;;;;;;11.07;2.45;;;12.40;99.90;;;;;;5032469;28;20056;-77
2024/03/03 09:10:20;;;;;;;12.02;2.53;;;12.50;99.90;;;;;;5031326;28;20068;-77
2024/03/03 09:12:46;;;;;;;8.15;2.13;;;12.50;99.90;;;;;;5031006;28;20044;-70
2024/03/03 09:15:12;;;;;;;10.23;3.03;;;12.50;99.90;;;;;;5031848;28;20033;-78
2024/03/03 09:17:38;;;;;;;6.28;2.20;;;12.50;99.90;;;;;;5033322;28;20033;-76
2024/03/03 09:20:05;;;;;;;9.18;2.20;;;12.50;99.90;;;;;;5036036;28;20041;-77
2024/03/03 09:22:32;;;;;;;8.15;2.08;;;12.60;99.90;;;;;;5032404;28;20527;-78
2024/03/03 09:24:57;;;;;;;7.75;2.75;;;12.60;99.90;;;;;;5032407;28;20053;-76
2024/03/03 09:27:25;;;;;;;6.30;1.90;;;12.60;99.90;;;;;;5032489;28;20079;-72
2024/03/03 09:29:52;;;;;;;13.18;2.20;;;12.70;99.90;;;;;;5032607;28;20049;-74
2024/03/03 09:32:18;;;;;;;12.32;2.30;;;12.70;99.90;;;;;;5008232;28;20041;-78
2024/03/03 09:34:44;;;;;;;8.82;1.88;;;12.70;99.90;;;;;;5027501;28;20037;-76
2024/03/03 09:37:12;;;;;;;11.18;2.05;;;12.70;99.90;;;;;;5028603;28;20053;-69
2024/03/03 09:39:38;;;;;;;22.15;2.90;;;12.70;99.90;;;;;;5029816;28;20041;-68
2024/03/03 09:42:05;;;;;;;6.22;1.50;;;12.80;99.90;;;;;;5030585;28;20108;-68
2024/03/03 09:44:44;;;;;;;10.05;1.83;;;12.80;99.90;;;;;;5031731;28;20068;-68
2024/03/03 09:47:12;;;;;;;9.60;1.75;;;12.80;99.90;;;;;;5031176;28;20561;-76
2024/03/03 09:49:45;;;;;;;7.28;1.95;;;12.90;99.90;;;;;;5033361;28;20053;-77
2024/03/03 09:52:14;;;;;;;14.35;2.00;;;12.90;99.90;;;;;;5037770;28;20038;-71
2024/03/03 09:54:41;;;;;;;7.05;1.70;;;13.00;99.90;;;;;;5038784;28;20041;-76
2024/03/03 09:57:13;;;;;;;13.63;2.35;;;13.00;99.90;;;;;;5033068;28;20033;-77
2024/03/03 09:59:44;;;;;;;6.80;1.60;;;13.00;99.90;;;;;;5029445;28;20057;-74
2024/03/03 10:02:16;;;;;;;8.90;2.40;;;13.00;99.90;;;;;;5028328;28;20041;-76
2024/03/03 10:04:45;;;;;;;6.97;1.98;;;13.00;99.90;;;;;;5029274;28;20477;-76
2024/03/03 10:07:23;;;;;;;7.32;1.67;;;13.00;99.90;;;;;;5030317;28;20038;-75
2024/03/03 10:10:08;;;;;;;12.20;2.08;;;13.00;99.90;;;;;;5028954;28;20488;-78
2024/03/03 10:12:35;;;;;;;8.60;1.58;;;13.00;99.90;;;;;;5028363;28;20034;-75
2024/03/03 10:15:02;;;;;;;9.25;1.92;;;13.00;99.90;;;;;;5028564;28;20501;-76
2024/03/03 10:17:28;;;;;;;11.88;1.98;;;13.00;99.90;;;;;;5028763;28;20121;-77
2024/03/03 10:20:08;;;;;;;9.20;1.83;;;13.00;99.90;;;;;;5029070;28;20124;-78
2024/03/03 10:22:35;;;;;;;13.68;1.85;;;13.00;99.90;;;;;;5029025;28;20061;-77
2024/03/03 10:25:18;;;;;;;13.75;2.50;;;13.10;99.90;;;;;;5030484;28;20073;-77
2024/03/03 10:27:46;;;;;;;8.95;2.05;;;13.00;99.90;;;;;;5030595;28;20820;-77
2024/03/03 10:30:14;;;;;;;9.80;1.65;;;13.10;99.90;;;;;;5031840;28;20141;-78
2024/03/03 10:32:41;;;;;;;8.15;1.77;;;13.10;99.90;;;;;;5033486;28;20033;-78
2024/03/03 10:35:14;;;;;;;8.40;1.75;;;13.10;99.90;;;;;;5036275;28;20029;-77
2024/03/03 10:37:53;;;;;;;9.45;1.83;;;13.10;99.90;;;;;;5036496;28;20490;-76
2024/03/03 10:40:20;;;;;;;8.55;1.80;;;13.20;99.90;;;;;;5036291;28;20033;-77
2024/03/03 10:42:46;;;;;;;9.70;2.10;;;13.30;99.90;;;;;;5036308;28;20113;-76
2024/03/03 10:45:12;;;;;;;6.60;1.50;;;13.40;99.90;;;;;;5035787;28;20470;-76
2024/03/03 10:47:38;;;;;;;9.93;2.30;;;13.40;99.90;;;;;;5035751;28;20081;-76
2024/03/03 10:50:08;;;;;;;7.13;1.40;;;13.50;99.90;;;;;;5035693;28;20060;-77
2024/03/03 10:52:41;;;;;;;8.48;1.58;;;13.50;99.90;;;;;;5035946;28;20108;-77
2024/03/03 10:55:09;;;;;;;10.52;1.90;;;13.60;99.90;;;;;;5036018;28;20033;-77
2024/03/03 10:57:35;;;;;;;5.20;1.60;;;13.60;99.90;;;;;;5035782;28;20061;-78
2024/03/03 11:00:06;;;;;;;10.35;1.95;;;13.60;99.90;;;;;;5035886;28;20490;-77
2024/03/03 11:02:34;;;;;;;8.02;1.70;;;13.70;99.90;;;;;;5035837;28;20038;-77
2024/03/03 11:05:01;;;;;;;8.23;1.70;;;13.60;99.90;;;;;;5035687;28;20063;-78
2024/03/03 11:07:30;;;;;;;7.90;1.60;;;13.60;99.90;;;;;;5035545;28;20109;-78
2024/03/03 11:09:57;;;;;;;9.88;2.13;;;13.70;99.90;;;;;;5035632;28;20128;-77
2024/03/03 11:12:27;;;;;;;5.80;1.77;;;13.70;99.90;;;;;;5035353;28;20068;-77
2024/03/03 11:14:56;;;;;;;6.45;1.73;;;13.70;99.90;;;;;;5035670;28;20041;-78
2024/03/03 11:17:26;;;;;;;12.57;1.70;;;13.80;99.90;;;;;;5035471;28;20404;-78
2024/03/03 11:19:52;;;;;;;8.02;1.75;;;13.90;99.90;;;;;;5035313;28;20084;-76
2024/03/03 11:22:24;;;;;;;7.28;1.77;;;13.90;99.90;;;;;;5035384;28;20037;-77
2024/03/03 11:24:58;;;;;;;12.38;1.85;;;14.00;99.90;;;;;;5035252;28;20080;-77
2024/03/03 11:27:31;;;;;;;10.75;1.60;;;14.00;99.90;;;;;;5035053;28;20037;-76
2024/03/03 11:29:58;;;;;;;8.98;1.90;;;14.10;99.90;;;;;;5035073;28;20046;-77
2024/03/03 11:32:29;;;;;;;5.10;1.98;;;14.20;99.90;;;;;;5034960;28;20494;-76
2024/03/03 11:34:56;;;;;;;9.85;1.58;;;14.30;99.90;;;;;;5035004;28;20397;-76
2024/03/03 11:37:23;;;;;;;9.27;1.73;;;14.40;99.90;;;;;;5035148;28;20045;-77
2024/03/03 11:40:14;;;;;;;7.63;1.70;;;14.50;99.90;;;;;;5034836;28;20037;-77
2024/03/03 11:42:40;;;;;;;9.90;1.85;;;14.50;99.90;;;;;;5034811;28;20070;-75
2024/03/03 11:45:06;;;;;;;11.38;2.08;;;14.40;99.90;;;;;;5034135;28;20536;-77
2024/03/03 11:47:39;;;;;;;7.75;1.77;;;14.40;99.90;;;;;;5034649;28;20084;-77
2024/03/03 11:50:24;;;;;;;10.32;1.45;;;14.30;99.90;;;;;;5034815;28;20048;-75
2024/03/03 11:52:51;;;;;;;9.45;2.20;;;14.30;99.90;;;;;;5033618;28;20401;-76
2024/03/03 11:55:29;;;;;;;8.55;1.85;;;14.30;99.90;;;;;;5034913;28;20079;-76
2024/03/03 11:57:56;;;;;;;5.85;1.00;;;14.30;99.90;;;;;;5033896;28;20037;-76
2024/03/03 12:00:27;;;;;;;6.50;1.92;;;14.30;99.90;;;;;;5031891;28;20049;-76
2024/03/03 12:02:54;;;;;;;9.13;2.00;;;14.40;99.90;;;;;;5032376;28;20030;-76
2024/03/03 12:05:21;;;;;;;7.53;1.27;;;14.50;99.90;;;;;;5034572;28;20038;-77
2024/03/03 12:07:52;;;;;;;4.32;1.15;;;14.50;99.90;;;;;;5034719;28;20482;-74
2024/03/03 12:10:17;;;;;;;6.65;1.48;;;14.60;99.90;;;;;;5034573;28;20394;-76
2024/03/03 12:12:50;;;;;;;5.30;1.20;;;14.70;99.90;;;;;;5033714;28;20034;-75
2024/03/03 12:15:18;;;;;;;8.02;1.45;;;14.70;99.90;;;;;;5034470;28;20041;-80
2024/03/03 12:17:50;;;;;;;7.82;1.45;;;14.70;99.90;;;;;;5034090;28;20036;-75
2024/03/03 12:20:17;;;;;;;8.80;1.98;;;14.70;99.90;;;;;;5033976;28;20103;-76
2024/03/03 12:22:45;;;;;;;7.80;1.50;;;14.70;99.90;;;;;;5033171;28;20107;-74
2024/03/03 12:25:11;;;;;;;8.07;1.70;;;14.80;99.90;;;;;;5031537;28;20034;-74
2024/03/03 12:27:37;;;;;;;10.70;2.13;;;14.80;99.90;;;;;;5030036;28;20045;-71
2024/03/03 12:30:09;;;;;;;7.20;1.30;;;14.80;99.90;;;;;;5032230;28;20481;-75
2024/03/03 12:32:36;;;;;;;8.85;1.92;;;14.80;99.90;;;;;;5033619;28;20393;-75
2024/03/03 12:35:02;;;;;;;4.82;1.40;;;14.70;99.90;;;;;;5033764;28;20034;-76
2024/03/03 12:37:28;;;;;;;10.43;1.80;;;14.70;99.90;;;;;;5033781;28;20036;-76
2024/03/03 12:39:54;;;;;;;5.47;1.05;;;14.70;99.90;;;;;;5033572;28;20490;-75
2024/03/03 12:42:21;;;;;;;7.57;1.25;;;14.70;99.90;;;;;;5033998;28;20059;-76
2024/03/03 12:44:48;;;;;;;7.32;1.40;;;14.70;99.60;;;;;;5033535;28;20029;-75